sensor_id;sensor_type;location;lat;lon;timestamp;P1;durP1;ratioP1;P2;durP2;ratioP2
2762;SDS011;1389;51.490;7.338;2023-03-31T00:01:49;408.67;;;181.93;;
2762;SDS011;1389;51.490;7.338;2023-03-31T00:04:17;407.30;;;181.97;;
2762;SDS011;1389;51.490;7.338;2023-03-31T00:06:43;414.42;;;192.65;;
2762;SDS011;1389;51.490;7.338;2023-03-31T00:09:13;426.40;;;210.85;;
2762;SDS011;1389;51.490;7.338;2023-03-31T00:11:47;408.47;;;180.00;;
2762;SDS011;1389;51.490;7.338;2023-03-31T00:14:14;409.13;;;185.13;;
2762;SDS011;1389;51.490;7.338;2023-03-31T00:16:42;417.15;;;196.30;;
2762;SDS011;1389;51.490;7.338;2023-03-31T00:19:09;415.70;;;194.10;;
2762;SDS011;1389;51.490;7.338;2023-03-31T00:21:48;416.33;;;194.55;;
2762;SDS011;1389;51.490;7.338;2023-03-31T00:24:16;422.30;;;194.32;;
2762;SDS011;1389;51.490;7.338;2023-03-31T00:26:42;406.55;;;180.77;;
2762;SDS011;1389;51.490;7.338;2023-03-31T00:29:10;405.77;;;179.07;;
2762;SDS011;1389;51.490;7.338;2023-03-31T00:31:37;399.02;;;168.75;;
2762;SDS011;1389;51.490;7.338;2023-03-31T00:34:04;395.33;;;162.35;;
2762;SDS011;1389;51.490;7.338;2023-03-31T00:36:31;407.40;;;178.70;;
2762;SDS011;1389;51.490;7.338;2023-03-31T00:39:02;395.73;;;163.20;;
2762;SDS011;1389;51.490;7.338;2023-03-31T00:41:34;399.03;;;164.83;;
2762;SDS011;1389;51.490;7.338;2023-03-31T00:46:33;409.75;;;176.32;;
2762;SDS011;1389;51.490;7.338;2023-03-31T00:49:05;404.45;;;173.68;;
2762;SDS011;1389;51.490;7.338;2023-03-31T00:51:41;401.67;;;170.05;;
2762;SDS011;1389;51.490;7.338;2023-03-31T00:54:08;400.23;;;166.23;;
2762;SDS011;1389;51.490;7.338;2023-03-31T00:56:36;400.45;;;166.30;;
2762;SDS011;1389;51.490;7.338;2023-03-31T00:59:06;398.73;;;165.38;;
2762;SDS011;1389;51.490;7.338;2023-03-31T01:01:35;399.85;;;163.85;;
2762;SDS011;1389;51.490;7.338;2023-03-31T01:04:07;396.57;;;161.67;;
2762;SDS011;1389;51.490;7.338;2023-03-31T01:06:36;398.45;;;165.60;;
2762;SDS011;1389;51.490;7.338;2023-03-31T01:09:11;395.13;;;159.30;;
2762;SDS011;1389;51.490;7.338;2023-03-31T01:11:38;398.20;;;163.15;;
2762;SDS011;1389;51.490;7.338;2023-03-31T01:14:05;395.27;;;160.50;;
2762;SDS011;1389;51.490;7.338;2023-03-31T01:16:31;391.45;;;156.93;;
2762;SDS011;1389;51.490;7.338;2023-03-31T01:18:58;401.65;;;164.20;;
2762;SDS011;1389;51.490;7.338;2023-03-31T01:21:31;382.87;;;141.83;;
2762;SDS011;1389;51.490;7.338;2023-03-31T01:24:43;392.95;;;156.75;;
2762;SDS011;1389;51.490;7.338;2023-03-31T01:47:23;380.02;;;139.20;;
2762;SDS011;1389;51.490;7.338;2023-03-31T01:50:03;383.10;;;146.80;;
2762;SDS011;1389;51.490;7.338;2023-03-31T01:52:36;370.08;;;129.25;;
2762;SDS011;1389;51.490;7.338;2023-03-31T01:55:15;377.45;;;139.77;;
2762;SDS011;1389;51.490;7.338;2023-03-31T01:57:47;379.17;;;140.70;;
2762;SDS011;1389;51.490;7.338;2023-03-31T02:00:23;382.05;;;145.60;;
2762;SDS011;1389;51.490;7.338;2023-03-31T02:05:31;381.38;;;138.98;;
2762;SDS011;1389;51.490;7.338;2023-03-31T02:08:09;373.80;;;131.48;;
2762;SDS011;1389;51.490;7.338;2023-03-31T02:10:43;370.40;;;128.87;;
2762;SDS011;1389;51.490;7.338;2023-03-31T02:13:10;377.13;;;137.15;;
2762;SDS011;1389;51.490;7.338;2023-03-31T02:15:39;373.90;;;129.55;;
2762;SDS011;1389;51.490;7.338;2023-03-31T02:18:08;376.25;;;129.13;;
2762;SDS011;1389;51.490;7.338;2023-03-31T02:20:38;376.42;;;133.80;;
2762;SDS011;1389;51.490;7.338;2023-03-31T02:23:11;376.70;;;134.00;;
2762;SDS011;1389;51.490;7.338;2023-03-31T02:25:45;377.80;;;133.77;;
2762;SDS011;1389;51.490;7.338;2023-03-31T02:28:17;376.40;;;134.52;;
2762;SDS011;1389;51.490;7.338;2023-03-31T02:30:50;375.52;;;134.15;;
2762;SDS011;1389;51.490;7.338;2023-03-31T02:33:30;369.27;;;121.95;;
2762;SDS011;1389;51.490;7.338;2023-03-31T02:35:57;373.10;;;130.90;;
2762;SDS011;1389;51.490;7.338;2023-03-31T02:38:24;372.40;;;128.98;;
2762;SDS011;1389;51.490;7.338;2023-03-31T02:40:50;373.38;;;130.15;;
2762;SDS011;1389;51.490;7.338;2023-03-31T02:43:16;372.40;;;130.90;;
2762;SDS011;1389;51.490;7.338;2023-03-31T02:53:39;367.80;;;123.60;;
2762;SDS011;1389;51.490;7.338;2023-03-31T02:59:38;367.40;;;125.80;;
2762;SDS011;1389;51.490;7.338;2023-03-31T03:11:06;352.90;;;109.55;;
2762;SDS011;1389;51.490;7.338;2023-03-31T03:16:46;357.57;;;110.77;;
2762;SDS011;1389;51.490;7.338;2023-03-31T03:19:18;359.20;;;119.50;;
2762;SDS011;1389;51.490;7.338;2023-03-31T03:21:47;354.83;;;112.00;;
2762;SDS011;1389;51.490;7.338;2023-03-31T03:24:14;359.77;;;112.95;;
2762;SDS011;1389;51.490;7.338;2023-03-31T03:26:41;363.25;;;123.30;;
2762;SDS011;1389;51.490;7.338;2023-03-31T03:29:09;361.23;;;120.25;;
2762;SDS011;1389;51.490;7.338;2023-03-31T03:31:42;362.13;;;120.47;;
2762;SDS011;1389;51.490;7.338;2023-03-31T03:34:08;359.83;;;117.38;;
2762;SDS011;1389;51.490;7.338;2023-03-31T03:36:35;359.10;;;118.20;;
2762;SDS011;1389;51.490;7.338;2023-03-31T03:39:02;360.33;;;121.23;;
2762;SDS011;1389;51.490;7.338;2023-03-31T03:41:30;361.60;;;121.17;;
2762;SDS011;1389;51.490;7.338;2023-03-31T03:43:58;356.37;;;114.40;;
2762;SDS011;1389;51.490;7.338;2023-03-31T03:46:24;358.55;;;117.45;;
2762;SDS011;1389;51.490;7.338;2023-03-31T03:48:51;363.25;;;119.15;;
2762;SDS011;1389;51.490;7.338;2023-03-31T03:51:17;356.52;;;113.13;;
2762;SDS011;1389;51.490;7.338;2023-03-31T03:53:43;352.35;;;106.05;;
2762;SDS011;1389;51.490;7.338;2023-03-31T03:56:09;363.10;;;121.13;;
2762;SDS011;1389;51.490;7.338;2023-03-31T03:58:35;361.40;;;118.75;;
2762;SDS011;1389;51.490;7.338;2023-03-31T04:01:02;363.07;;;122.50;;
2762;SDS011;1389;51.490;7.338;2023-03-31T04:03:28;362.20;;;122.40;;
2762;SDS011;1389;51.490;7.338;2023-03-31T04:05:55;356.60;;;113.43;;
2762;SDS011;1389;51.490;7.338;2023-03-31T04:08:22;358.50;;;120.87;;
2762;SDS011;1389;51.490;7.338;2023-03-31T04:10:49;355.77;;;117.40;;
2762;SDS011;1389;51.490;7.338;2023-03-31T04:13:16;360.58;;;119.57;;
2762;SDS011;1389;51.490;7.338;2023-03-31T04:15:43;357.15;;;117.53;;
2762;SDS011;1389;51.490;7.338;2023-03-31T04:18:10;359.20;;;120.05;;
2762;SDS011;1389;51.490;7.338;2023-03-31T04:20:50;362.10;;;122.40;;
2762;SDS011;1389;51.490;7.338;2023-03-31T04:23:29;355.38;;;111.38;;
2762;SDS011;1389;51.490;7.338;2023-03-31T04:25:58;358.60;;;118.80;;
2762;SDS011;1389;51.490;7.338;2023-03-31T04:28:25;360.23;;;118.22;;
2762;SDS011;1389;51.490;7.338;2023-03-31T04:30:51;357.88;;;117.88;;
2762;SDS011;1389;51.490;7.338;2023-03-31T04:33:23;356.20;;;115.93;;
2762;SDS011;1389;51.490;7.338;2023-03-31T04:35:49;357.67;;;115.32;;
2762;SDS011;1389;51.490;7.338;2023-03-31T04:38:22;362.23;;;121.63;;
2762;SDS011;1389;51.490;7.338;2023-03-31T04:40:53;356.40;;;115.40;;
2762;SDS011;1389;51.490;7.338;2023-03-31T04:43:19;362.90;;;123.00;;
2762;SDS011;1389;51.490;7.338;2023-03-31T04:45:45;361.55;;;122.03;;
2762;SDS011;1389;51.490;7.338;2023-03-31T04:48:12;358.58;;;119.50;;
2762;SDS011;1389;51.490;7.338;2023-03-31T04:50:38;361.30;;;121.90;;
2762;SDS011;1389;51.490;7.338;2023-03-31T04:53:04;355.38;;;115.95;;
2762;SDS011;1389;51.490;7.338;2023-03-31T04:55:30;359.67;;;116.50;;
2762;SDS011;1389;51.490;7.338;2023-03-31T04:57:56;356.63;;;113.45;;
2762;SDS011;1389;51.490;7.338;2023-03-31T05:00:22;361.85;;;123.88;;
2762;SDS011;1389;51.490;7.338;2023-03-31T05:02:49;360.05;;;121.38;;
2762;SDS011;1389;51.490;7.338;2023-03-31T05:05:15;358.55;;;121.28;;
2762;SDS011;1389;51.490;7.338;2023-03-31T05:07:41;364.30;;;128.88;;
2762;SDS011;1389;51.490;7.338;2023-03-31T05:10:08;361.27;;;122.78;;
2762;SDS011;1389;51.490;7.338;2023-03-31T05:12:35;359.65;;;120.85;;
2762;SDS011;1389;51.490;7.338;2023-03-31T05:15:02;356.60;;;117.28;;
2762;SDS011;1389;51.490;7.338;2023-03-31T05:17:32;360.90;;;119.93;;
2762;SDS011;1389;51.490;7.338;2023-03-31T05:19:59;353.95;;;114.70;;
2762;SDS011;1389;51.490;7.338;2023-03-31T05:22:26;352.92;;;115.72;;
2762;SDS011;1389;51.490;7.338;2023-03-31T05:24:52;359.53;;;118.30;;
2762;SDS011;1389;51.490;7.338;2023-03-31T05:27:18;352.50;;;113.07;;
2762;SDS011;1389;51.490;7.338;2023-03-31T05:29:46;348.10;;;105.88;;
2762;SDS011;1389;51.490;7.338;2023-03-31T05:32:12;356.10;;;116.00;;
2762;SDS011;1389;51.490;7.338;2023-03-31T05:34:38;346.67;;;106.70;;
2762;SDS011;1389;51.490;7.338;2023-03-31T05:37:04;353.63;;;115.18;;
2762;SDS011;1389;51.490;7.338;2023-03-31T05:39:30;358.67;;;119.60;;
2762;SDS011;1389;51.490;7.338;2023-03-31T05:41:58;354.85;;;117.20;;
2762;SDS011;1389;51.490;7.338;2023-03-31T05:44:25;356.77;;;116.20;;
2762;SDS011;1389;51.490;7.338;2023-03-31T05:46:52;359.70;;;117.27;;
2762;SDS011;1389;51.490;7.338;2023-03-31T05:49:18;358.90;;;117.07;;
2762;SDS011;1389;51.490;7.338;2023-03-31T05:51:45;360.67;;;118.03;;
2762;SDS011;1389;51.490;7.338;2023-03-31T05:54:11;359.70;;;116.10;;
2762;SDS011;1389;51.490;7.338;2023-03-31T05:56:37;358.73;;;114.00;;
2762;SDS011;1389;51.490;7.338;2023-03-31T05:59:03;357.65;;;113.72;;
2762;SDS011;1389;51.490;7.338;2023-03-31T06:01:30;359.10;;;111.90;;
2762;SDS011;1389;51.490;7.338;2023-03-31T06:03:56;360.23;;;114.30;;
2762;SDS011;1389;51.490;7.338;2023-03-31T06:06:22;359.90;;;113.00;;
2762;SDS011;1389;51.490;7.338;2023-03-31T06:08:49;363.70;;;116.40;;
2762;SDS011;1389;51.490;7.338;2023-03-31T06:11:16;361.08;;;116.78;;
2762;SDS011;1389;51.490;7.338;2023-03-31T06:13:44;360.10;;;113.97;;
2762;SDS011;1389;51.490;7.338;2023-03-31T06:16:20;357.85;;;112.03;;
2762;SDS011;1389;51.490;7.338;2023-03-31T06:18:46;362.95;;;116.63;;
2762;SDS011;1389;51.490;7.338;2023-03-31T06:21:14;359.85;;;109.90;;
2762;SDS011;1389;51.490;7.338;2023-03-31T06:23:41;355.83;;;105.82;;
2762;SDS011;1389;51.490;7.338;2023-03-31T06:26:12;362.10;;;115.30;;
2762;SDS011;1389;51.490;7.338;2023-03-31T06:28:40;359.20;;;113.40;;
2762;SDS011;1389;51.490;7.338;2023-03-31T06:31:07;355.13;;;110.63;;
2762;SDS011;1389;51.490;7.338;2023-03-31T06:33:36;362.53;;;115.57;;
2762;SDS011;1389;51.490;7.338;2023-03-31T06:36:02;359.35;;;113.28;;
2762;SDS011;1389;51.490;7.338;2023-03-31T06:38:30;361.30;;;111.40;;
2762;SDS011;1389;51.490;7.338;2023-03-31T06:40:57;359.73;;;112.28;;
2762;SDS011;1389;51.490;7.338;2023-03-31T06:43:23;361.13;;;112.83;;
2762;SDS011;1389;51.490;7.338;2023-03-31T06:45:51;350.38;;;105.63;;
2762;SDS011;1389;51.490;7.338;2023-03-31T06:48:18;349.40;;;104.40;;
2762;SDS011;1389;51.490;7.338;2023-03-31T06:50:44;352.45;;;103.78;;
2762;SDS011;1389;51.490;7.338;2023-03-31T06:53:10;350.75;;;107.03;;
2762;SDS011;1389;51.490;7.338;2023-03-31T06:55:37;352.70;;;106.30;;
2762;SDS011;1389;51.490;7.338;2023-03-31T06:58:03;352.70;;;107.72;;
2762;SDS011;1389;51.490;7.338;2023-03-31T07:00:30;346.80;;;97.63;;
2762;SDS011;1389;51.490;7.338;2023-03-31T07:02:57;351.88;;;106.78;;
2762;SDS011;1389;51.490;7.338;2023-03-31T07:05:23;348.80;;;103.47;;
2762;SDS011;1389;51.490;7.338;2023-03-31T07:07:53;349.55;;;102.25;;
2762;SDS011;1389;51.490;7.338;2023-03-31T07:10:20;347.20;;;99.82;;
2762;SDS011;1389;51.490;7.338;2023-03-31T07:12:47;354.65;;;104.93;;
2762;SDS011;1389;51.490;7.338;2023-03-31T07:15:14;350.05;;;103.38;;
2762;SDS011;1389;51.490;7.338;2023-03-31T07:17:41;347.00;;;100.55;;
2762;SDS011;1389;51.490;7.338;2023-03-31T07:20:11;348.95;;;101.78;;
2762;SDS011;1389;51.490;7.338;2023-03-31T07:22:42;346.58;;;101.13;;
2762;SDS011;1389;51.490;7.338;2023-03-31T07:25:13;349.15;;;102.70;;
2762;SDS011;1389;51.490;7.338;2023-03-31T07:27:41;349.10;;;102.90;;
2762;SDS011;1389;51.490;7.338;2023-03-31T07:30:08;346.40;;;100.55;;
2762;SDS011;1389;51.490;7.338;2023-03-31T07:32:37;349.65;;;101.72;;
2762;SDS011;1389;51.490;7.338;2023-03-31T07:35:07;346.48;;;96.18;;
2762;SDS011;1389;51.490;7.338;2023-03-31T07:37:35;348.10;;;99.85;;
2762;SDS011;1389;51.490;7.338;2023-03-31T07:40:07;349.52;;;99.40;;
2762;SDS011;1389;51.490;7.338;2023-03-31T07:42:37;343.88;;;95.80;;
2762;SDS011;1389;51.490;7.338;2023-03-31T07:45:04;347.73;;;99.97;;
2762;SDS011;1389;51.490;7.338;2023-03-31T07:47:32;352.50;;;102.00;;
2762;SDS011;1389;51.490;7.338;2023-03-31T07:49:58;347.33;;;97.53;;
2762;SDS011;1389;51.490;7.338;2023-03-31T07:52:24;349.60;;;100.30;;
2762;SDS011;1389;51.490;7.338;2023-03-31T07:54:50;349.08;;;98.50;;
2762;SDS011;1389;51.490;7.338;2023-03-31T07:57:16;344.52;;;94.70;;
2762;SDS011;1389;51.490;7.338;2023-03-31T07:59:44;346.90;;;95.88;;
2762;SDS011;1389;51.490;7.338;2023-03-31T08:02:12;348.83;;;99.10;;
2762;SDS011;1389;51.490;7.338;2023-03-31T08:04:40;344.90;;;94.97;;
2762;SDS011;1389;51.490;7.338;2023-03-31T08:07:07;345.88;;;96.07;;
2762;SDS011;1389;51.490;7.338;2023-03-31T08:09:34;345.52;;;96.15;;
2762;SDS011;1389;51.490;7.338;2023-03-31T08:12:00;341.25;;;94.07;;
2762;SDS011;1389;51.490;7.338;2023-03-31T08:14:26;342.40;;;95.27;;
2762;SDS011;1389;51.490;7.338;2023-03-31T08:16:52;345.50;;;94.55;;
2762;SDS011;1389;51.490;7.338;2023-03-31T08:19:20;344.52;;;90.63;;
2762;SDS011;1389;51.490;7.338;2023-03-31T08:21:46;344.52;;;92.82;;
2762;SDS011;1389;51.490;7.338;2023-03-31T08:24:12;344.08;;;94.10;;
2762;SDS011;1389;51.490;7.338;2023-03-31T08:26:39;342.90;;;93.28;;
2762;SDS011;1389;51.490;7.338;2023-03-31T08:29:06;347.73;;;98.85;;
2762;SDS011;1389;51.490;7.338;2023-03-31T08:31:32;347.17;;;95.45;;
2762;SDS011;1389;51.490;7.338;2023-03-31T08:33:58;345.92;;;93.65;;
2762;SDS011;1389;51.490;7.338;2023-03-31T08:36:25;346.80;;;94.90;;
2762;SDS011;1389;51.490;7.338;2023-03-31T08:38:51;344.60;;;92.50;;
2762;SDS011;1389;51.490;7.338;2023-03-31T08:44:04;346.88;;;94.10;;
2762;SDS011;1389;51.490;7.338;2023-03-31T08:46:35;347.63;;;93.57;;
2762;SDS011;1389;51.490;7.338;2023-03-31T08:49:03;347.80;;;92.30;;
2762;SDS011;1389;51.490;7.338;2023-03-31T08:51:35;346.10;;;92.63;;
2762;SDS011;1389;51.490;7.338;2023-03-31T08:54:06;346.50;;;93.10;;
2762;SDS011;1389;51.490;7.338;2023-03-31T08:56:41;348.70;;;93.80;;
2762;SDS011;1389;51.490;7.338;2023-03-31T08:59:25;346.92;;;92.13;;
2762;SDS011;1389;51.490;7.338;2023-03-31T09:15:58;348.48;;;91.65;;
2762;SDS011;1389;51.490;7.338;2023-03-31T09:18:34;347.48;;;90.40;;
2762;SDS011;1389;51.490;7.338;2023-03-31T09:26:43;346.10;;;92.60;;
2762;SDS011;1389;51.490;7.338;2023-03-31T09:29:23;346.07;;;91.60;;
2762;SDS011;1389;51.490;7.338;2023-03-31T09:31:54;341.55;;;90.05;;
2762;SDS011;1389;51.490;7.338;2023-03-31T09:34:29;344.65;;;91.75;;
2762;SDS011;1389;51.490;7.338;2023-03-31T09:36:57;345.90;;;90.68;;
2762;SDS011;1389;51.490;7.338;2023-03-31T09:39:23;346.02;;;89.15;;
2762;SDS011;1389;51.490;7.338;2023-03-31T09:41:50;344.77;;;87.45;;
2762;SDS011;1389;51.490;7.338;2023-03-31T09:44:21;346.90;;;89.40;;
2762;SDS011;1389;51.490;7.338;2023-03-31T09:46:50;349.02;;;90.57;;
2762;SDS011;1389;51.490;7.338;2023-03-31T09:49:19;347.83;;;91.83;;
2762;SDS011;1389;51.490;7.338;2023-03-31T09:51:48;346.47;;;88.67;;
2762;SDS011;1389;51.490;7.338;2023-03-31T09:54:29;351.53;;;89.50;;
2762;SDS011;1389;51.490;7.338;2023-03-31T09:57:01;350.33;;;85.03;;
2762;SDS011;1389;51.490;7.338;2023-03-31T09:59:36;350.47;;;81.93;;
2762;SDS011;1389;51.490;7.338;2023-03-31T10:02:03;348.15;;;84.40;;
2762;SDS011;1389;51.490;7.338;2023-03-31T10:04:58;351.92;;;86.53;;
2762;SDS011;1389;51.490;7.338;2023-03-31T10:07:24;353.38;;;90.13;;
2762;SDS011;1389;51.490;7.338;2023-03-31T10:09:51;346.35;;;83.03;;
2762;SDS011;1389;51.490;7.338;2023-03-31T10:12:19;349.00;;;89.82;;
2762;SDS011;1389;51.490;7.338;2023-03-31T10:14:49;356.75;;;92.18;;
2762;SDS011;1389;51.490;7.338;2023-03-31T10:17:18;345.17;;;84.43;;
2762;SDS011;1389;51.490;7.338;2023-03-31T10:19:50;349.10;;;85.22;;
2762;SDS011;1389;51.490;7.338;2023-03-31T10:24:49;348.98;;;87.78;;
2762;SDS011;1389;51.490;7.338;2023-03-31T10:29:53;350.88;;;86.95;;
2762;SDS011;1389;51.490;7.338;2023-03-31T10:34:55;347.47;;;82.70;;
2762;SDS011;1389;51.490;7.338;2023-03-31T10:37:24;346.92;;;81.00;;
2762;SDS011;1389;51.490;7.338;2023-03-31T10:39:59;351.83;;;89.22;;
2762;SDS011;1389;51.490;7.338;2023-03-31T10:42:30;352.52;;;91.47;;
2762;SDS011;1389;51.490;7.338;2023-03-31T10:45:10;344.58;;;83.18;;
2762;SDS011;1389;51.490;7.338;2023-03-31T10:48:02;350.05;;;89.75;;
2762;SDS011;1389;51.490;7.338;2023-03-31T10:50:33;350.77;;;93.53;;
2762;SDS011;1389;51.490;7.338;2023-03-31T10:53:02;346.35;;;88.45;;
2762;SDS011;1389;51.490;7.338;2023-03-31T10:55:34;346.35;;;86.38;;
2762;SDS011;1389;51.490;7.338;2023-03-31T10:58:16;340.75;;;82.32;;
2762;SDS011;1389;51.490;7.338;2023-03-31T11:01:13;344.70;;;85.90;;
2762;SDS011;1389;51.490;7.338;2023-03-31T11:06:55;350.63;;;87.65;;
2762;SDS011;1389;51.490;7.338;2023-03-31T11:09:37;347.25;;;83.43;;
2762;SDS011;1389;51.490;7.338;2023-03-31T11:12:29;347.38;;;84.68;;
2762;SDS011;1389;51.490;7.338;2023-03-31T11:15:08;349.03;;;84.60;;
2762;SDS011;1389;51.490;7.338;2023-03-31T11:17:55;352.80;;;87.68;;
2762;SDS011;1389;51.490;7.338;2023-03-31T11:20:41;349.58;;;84.20;;
2762;SDS011;1389;51.490;7.338;2023-03-31T11:23:25;350.60;;;85.70;;
2762;SDS011;1389;51.490;7.338;2023-03-31T11:26:20;354.67;;;87.05;;
2762;SDS011;1389;51.490;7.338;2023-03-31T11:29:05;363.55;;;99.25;;
2762;SDS011;1389;51.490;7.338;2023-03-31T11:34:26;364.75;;;102.97;;
2762;SDS011;1389;51.490;7.338;2023-03-31T11:39:43;351.90;;;88.10;;
2762;SDS011;1389;51.490;7.338;2023-03-31T11:42:22;355.75;;;92.25;;
2762;SDS011;1389;51.490;7.338;2023-03-31T11:44:55;352.92;;;88.20;;
2762;SDS011;1389;51.490;7.338;2023-03-31T11:47:31;352.73;;;89.07;;
2762;SDS011;1389;51.490;7.338;2023-03-31T11:50:23;348.13;;;89.35;;
2762;SDS011;1389;51.490;7.338;2023-03-31T11:53:07;349.25;;;89.10;;
2762;SDS011;1389;51.490;7.338;2023-03-31T11:55:44;347.58;;;88.03;;
2762;SDS011;1389;51.490;7.338;2023-03-31T11:58:17;349.10;;;88.50;;
2762;SDS011;1389;51.490;7.338;2023-03-31T12:00:55;348.05;;;87.88;;
2762;SDS011;1389;51.490;7.338;2023-03-31T12:03:44;342.83;;;79.95;;
2762;SDS011;1389;51.490;7.338;2023-03-31T12:06:16;347.63;;;84.93;;
2762;SDS011;1389;51.490;7.338;2023-03-31T12:11:40;346.73;;;80.18;;
2762;SDS011;1389;51.490;7.338;2023-03-31T12:17:01;349.37;;;82.70;;
2762;SDS011;1389;51.490;7.338;2023-03-31T12:19:35;355.20;;;86.07;;
2762;SDS011;1389;51.490;7.338;2023-03-31T12:22:44;355.60;;;85.50;;
2762;SDS011;1389;51.490;7.338;2023-03-31T12:25:15;357.67;;;89.30;;
2762;SDS011;1389;51.490;7.338;2023-03-31T12:27:47;353.52;;;89.32;;
2762;SDS011;1389;51.490;7.338;2023-03-31T12:33:05;362.00;;;96.38;;
2762;SDS011;1389;51.490;7.338;2023-03-31T12:38:54;364.38;;;98.15;;
2762;SDS011;1389;51.490;7.338;2023-03-31T12:42:03;365.20;;;104.40;;
2762;SDS011;1389;51.490;7.338;2023-03-31T12:44:53;367.92;;;107.57;;
2762;SDS011;1389;51.490;7.338;2023-03-31T12:50:46;365.83;;;107.28;;
2762;SDS011;1389;51.490;7.338;2023-03-31T12:56:20;368.98;;;110.72;;
2762;SDS011;1389;51.490;7.338;2023-03-31T12:58:46;369.38;;;110.18;;
2762;SDS011;1389;51.490;7.338;2023-03-31T13:03:53;364.27;;;105.45;;
2762;SDS011;1389;51.490;7.338;2023-03-31T13:11:39;364.65;;;103.40;;
2762;SDS011;1389;51.490;7.338;2023-03-31T13:14:13;364.75;;;104.70;;
2762;SDS011;1389;51.490;7.338;2023-03-31T13:16:43;368.17;;;107.95;;
2762;SDS011;1389;51.490;7.338;2023-03-31T13:19:11;364.40;;;103.50;;
2762;SDS011;1389;51.490;7.338;2023-03-31T13:21:52;368.58;;;104.63;;
2762;SDS011;1389;51.490;7.338;2023-03-31T13:24:21;370.25;;;106.63;;
2762;SDS011;1389;51.490;7.338;2023-03-31T13:26:48;371.08;;;110.18;;
2762;SDS011;1389;51.490;7.338;2023-03-31T13:34:35;381.83;;;130.60;;
2762;SDS011;1389;51.490;7.338;2023-03-31T14:03:16;371.08;;;105.85;;
2762;SDS011;1389;51.490;7.338;2023-03-31T14:08:00;365.67;;;99.07;;
2762;SDS011;1389;51.490;7.338;2023-03-31T14:10:37;380.30;;;115.70;;
2762;SDS011;1389;51.490;7.338;2023-03-31T14:13:15;369.13;;;105.47;;
2762;SDS011;1389;51.490;7.338;2023-03-31T14:15:48;369.40;;;109.07;;
2762;SDS011;1389;51.490;7.338;2023-03-31T14:18:27;368.88;;;106.68;;
2762;SDS011;1389;51.490;7.338;2023-03-31T14:21:10;372.42;;;108.45;;
2762;SDS011;1389;51.490;7.338;2023-03-31T14:24:04;374.00;;;110.00;;
2762;SDS011;1389;51.490;7.338;2023-03-31T14:29:34;365.35;;;99.57;;
2762;SDS011;1389;51.490;7.338;2023-03-31T14:37:51;369.02;;;105.05;;
2762;SDS011;1389;51.490;7.338;2023-03-31T14:40:19;368.83;;;103.82;;
2762;SDS011;1389;51.490;7.338;2023-03-31T14:42:45;369.80;;;106.13;;
2762;SDS011;1389;51.490;7.338;2023-03-31T14:45:15;370.40;;;105.93;;
2762;SDS011;1389;51.490;7.338;2023-03-31T14:47:57;370.40;;;103.47;;
2762;SDS011;1389;51.490;7.338;2023-03-31T14:50:28;370.80;;;107.40;;
2762;SDS011;1389;51.490;7.338;2023-03-31T14:53:00;367.98;;;108.55;;
2762;SDS011;1389;51.490;7.338;2023-03-31T14:55:29;369.83;;;108.55;;
2762;SDS011;1389;51.490;7.338;2023-03-31T14:57:58;370.70;;;110.53;;
2762;SDS011;1389;51.490;7.338;2023-03-31T15:00:30;369.98;;;111.38;;
2762;SDS011;1389;51.490;7.338;2023-03-31T15:02:58;370.23;;;109.70;;
2762;SDS011;1389;51.490;7.338;2023-03-31T15:05:33;371.85;;;109.32;;
2762;SDS011;1389;51.490;7.338;2023-03-31T15:10:43;371.83;;;111.05;;
2762;SDS011;1389;51.490;7.338;2023-03-31T15:13:36;372.35;;;112.95;;
2762;SDS011;1389;51.490;7.338;2023-03-31T15:19:19;375.63;;;118.00;;
2762;SDS011;1389;51.490;7.338;2023-03-31T15:21:57;370.77;;;113.13;;
2762;SDS011;1389;51.490;7.338;2023-03-31T15:24:28;372.50;;;114.57;;
2762;SDS011;1389;51.490;7.338;2023-03-31T15:27:00;376.97;;;120.07;;
2762;SDS011;1389;51.490;7.338;2023-03-31T15:29:41;375.85;;;118.60;;
2762;SDS011;1389;51.490;7.338;2023-03-31T15:32:16;374.97;;;121.37;;
2762;SDS011;1389;51.490;7.338;2023-03-31T15:34:46;373.60;;;118.50;;
2762;SDS011;1389;51.490;7.338;2023-03-31T15:37:12;371.88;;;111.07;;
2762;SDS011;1389;51.490;7.338;2023-03-31T15:39:38;376.60;;;117.93;;
2762;SDS011;1389;51.490;7.338;2023-03-31T15:42:11;372.60;;;116.30;;
2762;SDS011;1389;51.490;7.338;2023-03-31T15:44:47;376.90;;;124.25;;
2762;SDS011;1389;51.490;7.338;2023-03-31T15:47:26;378.13;;;125.23;;
2762;SDS011;1389;51.490;7.338;2023-03-31T15:49:54;383.15;;;135.02;;
2762;SDS011;1389;51.490;7.338;2023-03-31T15:52:36;384.23;;;151.93;;
2762;SDS011;1389;51.490;7.338;2023-03-31T15:57:50;373.10;;;133.48;;
2762;SDS011;1389;51.490;7.338;2023-03-31T16:03:27;357.48;;;112.28;;
2762;SDS011;1389;51.490;7.338;2023-03-31T16:06:00;363.15;;;116.47;;
2762;SDS011;1389;51.490;7.338;2023-03-31T16:11:17;366.67;;;114.25;;
2762;SDS011;1389;51.490;7.338;2023-03-31T16:13:48;365.70;;;112.30;;
2762;SDS011;1389;51.490;7.338;2023-03-31T16:16:19;369.52;;;116.25;;
2762;SDS011;1389;51.490;7.338;2023-03-31T16:18:58;368.58;;;115.63;;
2762;SDS011;1389;51.490;7.338;2023-03-31T16:21:33;366.40;;;111.90;;
2762;SDS011;1389;51.490;7.338;2023-03-31T16:24:04;372.70;;;118.65;;
2762;SDS011;1389;51.490;7.338;2023-03-31T16:26:31;368.17;;;111.70;;
2762;SDS011;1389;51.490;7.338;2023-03-31T16:28:57;363.77;;;107.90;;
2762;SDS011;1389;51.490;7.338;2023-03-31T16:31:30;363.48;;;108.80;;
2762;SDS011;1389;51.490;7.338;2023-03-31T16:34:03;365.30;;;110.60;;
2762;SDS011;1389;51.490;7.338;2023-03-31T16:36:30;368.35;;;111.13;;
2762;SDS011;1389;51.490;7.338;2023-03-31T16:38:56;370.17;;;111.55;;
2762;SDS011;1389;51.490;7.338;2023-03-31T16:41:25;370.63;;;115.68;;
2762;SDS011;1389;51.490;7.338;2023-03-31T16:43:52;370.45;;;114.22;;
2762;SDS011;1389;51.490;7.338;2023-03-31T16:46:19;370.95;;;115.00;;
2762;SDS011;1389;51.490;7.338;2023-03-31T16:48:46;369.40;;;112.47;;
2762;SDS011;1389;51.490;7.338;2023-03-31T16:51:13;370.30;;;116.13;;
2762;SDS011;1389;51.490;7.338;2023-03-31T16:53:39;369.30;;;110.03;;
2762;SDS011;1389;51.490;7.338;2023-03-31T16:56:06;371.95;;;120.90;;
2762;SDS011;1389;51.490;7.338;2023-03-31T16:58:34;374.42;;;122.40;;
2762;SDS011;1389;51.490;7.338;2023-03-31T17:01:02;376.42;;;123.85;;
2762;SDS011;1389;51.490;7.338;2023-03-31T17:03:30;373.40;;;121.30;;
2762;SDS011;1389;51.490;7.338;2023-03-31T17:05:57;378.25;;;126.63;;
2762;SDS011;1389;51.490;7.338;2023-03-31T17:08:24;367.23;;;112.68;;
2762;SDS011;1389;51.490;7.338;2023-03-31T17:10:55;368.10;;;112.75;;
2762;SDS011;1389;51.490;7.338;2023-03-31T17:13:29;370.37;;;116.40;;
2762;SDS011;1389;51.490;7.338;2023-03-31T17:15:57;374.40;;;123.00;;
2762;SDS011;1389;51.490;7.338;2023-03-31T17:18:24;370.40;;;119.35;;
2762;SDS011;1389;51.490;7.338;2023-03-31T17:20:50;375.70;;;129.83;;
2762;SDS011;1389;51.490;7.338;2023-03-31T17:23:21;368.40;;;117.63;;
2762;SDS011;1389;51.490;7.338;2023-03-31T17:25:51;367.27;;;116.85;;
2762;SDS011;1389;51.490;7.338;2023-03-31T17:28:18;361.13;;;108.13;;
2762;SDS011;1389;51.490;7.338;2023-03-31T17:30:44;360.42;;;108.28;;
2762;SDS011;1389;51.490;7.338;2023-03-31T17:33:13;367.35;;;117.47;;
2762;SDS011;1389;51.490;7.338;2023-03-31T17:35:40;368.20;;;119.40;;
2762;SDS011;1389;51.490;7.338;2023-03-31T17:38:06;366.75;;;117.30;;